createdAt,value
2022-10-05T00:05:54.656Z,13.00
2022-10-05T00:11:56.251Z,12.90
2022-10-05T00:17:58.361Z,12.90
2022-10-05T00:24:00.759Z,12.90
2022-10-05T00:30:07.800Z,12.80
2022-10-05T00:36:09.440Z,12.90
2022-10-05T00:42:18.319Z,12.80
2022-10-05T00:48:29.091Z,12.80
2022-10-05T00:54:37.308Z,12.80
2022-10-05T01:00:43.962Z,12.80
2022-10-05T01:06:51.673Z,12.80
2022-10-05T01:13:00.705Z,12.70
2022-10-05T01:19:21.335Z,12.70
2022-10-05T01:25:35.252Z,12.70
2022-10-05T01:31:47.538Z,12.80
2022-10-05T01:37:58.036Z,12.80
2022-10-05T01:44:03.148Z,12.80
2022-10-05T01:50:07.744Z,12.70
2022-10-05T01:56:09.336Z,12.70
2022-10-05T02:02:13.060Z,12.70
2022-10-05T02:08:16.681Z,12.70
2022-10-05T02:14:20.590Z,12.70
2022-10-05T02:20:27.506Z,12.80
2022-10-05T02:26:31.266Z,12.70
2022-10-05T02:32:36.692Z,12.70
2022-10-05T02:38:50.463Z,12.70
2022-10-05T02:45:01.295Z,12.70
2022-10-05T02:51:08.411Z,12.70
2022-10-05T02:57:14.165Z,12.70
2022-10-05T03:03:23.444Z,12.80
2022-10-05T03:09:27.218Z,12.70
2022-10-05T03:15:28.768Z,12.80
2022-10-05T03:21:48.546Z,12.80
2022-10-05T03:27:54.749Z,12.80
2022-10-05T03:34:00.112Z,12.90
2022-10-05T03:40:13.147Z,12.80
2022-10-05T03:46:27.965Z,12.90
2022-10-05T03:52:36.411Z,12.90
2022-10-05T03:58:45.214Z,12.90
2022-10-05T04:04:49.069Z,12.90
2022-10-05T04:10:52.114Z,12.80
2022-10-05T04:16:59.540Z,12.90
2022-10-05T04:23:07.126Z,12.90
2022-10-05T04:29:17.178Z,12.90
2022-10-05T04:35:40.914Z,12.90
2022-10-05T04:42:02.929Z,12.90
2022-10-05T04:48:23.361Z,12.90
2022-10-05T04:54:43.419Z,12.90
2022-10-05T05:01:03.672Z,12.90
2022-10-05T05:07:24.007Z,12.90
2022-10-05T05:13:35.865Z,12.90
2022-10-05T05:19:37.579Z,12.90
2022-10-05T05:25:46.111Z,12.80
2022-10-05T05:31:49.711Z,12.90
2022-10-05T05:37:51.281Z,12.90
2022-10-05T05:43:55.625Z,12.90
2022-10-05T05:50:20.223Z,12.90
2022-10-05T05:56:33.005Z,12.90
2022-10-05T06:02:42.969Z,13.00
2022-10-05T06:08:50.367Z,13.00
2022-10-05T06:14:55.039Z,13.00
2022-10-05T06:20:59.483Z,13.00
2022-10-05T06:27:01.120Z,13.10
2022-10-05T06:33:23.004Z,13.20
2022-10-05T06:39:27.941Z,13.30
2022-10-05T06:45:29.599Z,13.30
2022-10-05T06:51:34.280Z,13.40
2022-10-05T06:57:36.649Z,13.40
2022-10-05T07:03:50.159Z,13.50
2022-10-05T07:09:57.893Z,13.30
2022-10-05T07:16:18.681Z,13.40
2022-10-05T07:22:28.288Z,13.50
2022-10-05T07:28:35.232Z,13.50
2022-10-05T07:34:55.612Z,13.60
2022-10-05T07:41:00.893Z,13.70
2022-10-05T07:47:08.683Z,13.90
2022-10-05T07:53:16.220Z,13.90
2022-10-05T07:59:17.833Z,14.00
2022-10-05T08:05:19.416Z,14.10
2022-10-05T08:11:24.263Z,14.20
2022-10-05T08:17:48.495Z,14.30
2022-10-05T08:24:05.730Z,14.30
2022-10-05T08:30:11.677Z,14.40
2022-10-05T08:36:14.481Z,14.50
2022-10-05T08:42:18.804Z,14.50
2022-10-05T08:48:20.396Z,14.50
2022-10-05T08:54:25.179Z,14.50
2022-10-05T09:00:35.721Z,14.50
2022-10-05T09:06:52.126Z,14.50
2022-10-05T09:13:13.969Z,14.50
2022-10-05T09:19:34.300Z,14.60
2022-10-05T09:25:43.405Z,14.50
2022-10-05T09:32:15.673Z,14.50
2022-10-05T09:38:36.514Z,14.50
2022-10-05T09:44:38.118Z,14.60
2022-10-05T09:50:51.596Z,14.60
2022-10-05T09:56:56.272Z,14.70
2022-10-05T10:03:16.730Z,14.80
2022-10-05T10:09:18.344Z,14.90
2022-10-05T10:15:35.318Z,14.90
2022-10-05T10:21:49.495Z,15.10
2022-10-05T10:28:06.819Z,15.20
2022-10-05T10:34:27.575Z,15.40
2022-10-05T10:40:34.946Z,15.40
2022-10-05T10:46:45.538Z,15.50
2022-10-05T10:53:19.747Z,15.70
2022-10-05T10:59:41.484Z,15.80
2022-10-05T11:05:46.439Z,16.10
2022-10-05T11:12:08.993Z,16.20
2022-10-05T11:18:15.671Z,16.60
2022-10-05T11:24:41.807Z,16.80
2022-10-05T11:31:02.111Z,16.70
2022-10-05T11:37:22.536Z,16.70
2022-10-05T11:43:37.370Z,16.70
2022-10-05T11:49:43.699Z,16.90
2022-10-05T11:55:57.715Z,17.00
2022-10-05T12:02:17.567Z,17.20
2022-10-05T12:08:19.161Z,17.50
2022-10-05T12:14:20.716Z,17.70
2022-10-05T12:20:27.801Z,17.60
2022-10-05T12:26:32.424Z,17.60
2022-10-05T12:32:42.513Z,17.60
2022-10-05T12:38:44.243Z,17.60
2022-10-05T12:45:03.801Z,17.80
2022-10-05T12:51:44.127Z,17.80
2022-10-05T12:57:54.250Z,18.00
2022-10-05T13:04:06.570Z,18.00
2022-10-05T13:10:22.654Z,18.00
2022-10-05T13:16:27.402Z,18.10
2022-10-05T13:22:35.608Z,18.20
2022-10-05T13:28:41.895Z,18.10
2022-10-05T13:34:46.589Z,18.10
2022-10-05T13:41:07.573Z,18.30
2022-10-05T13:47:21.296Z,18.20
2022-10-05T13:53:45.956Z,18.10
2022-10-05T13:59:55.589Z,18.10
2022-10-05T14:05:58.763Z,18.00
2022-10-05T14:12:03.197Z,17.90
2022-10-05T14:18:22.179Z,17.90
2022-10-05T14:24:43.723Z,18.00
2022-10-05T14:30:59.054Z,18.00
2022-10-05T14:37:03.105Z,17.90
2022-10-05T14:43:13.558Z,17.90
2022-10-05T14:49:19.280Z,17.90
2022-10-05T14:55:31.056Z,17.90
2022-10-05T15:01:39.355Z,17.90
2022-10-05T15:07:43.028Z,17.90
2022-10-05T15:13:45.792Z,18.00
2022-10-05T15:19:56.786Z,18.00
2022-10-05T15:26:08.199Z,18.10
2022-10-05T15:32:19.170Z,18.10
2022-10-05T15:38:23.758Z,18.10
2022-10-05T15:44:34.010Z,18.20
2022-10-05T15:50:57.251Z,18.20
2022-10-05T15:57:06.426Z,18.20
2022-10-05T16:03:16.869Z,18.10
2022-10-05T16:09:27.578Z,18.00
2022-10-05T16:15:55.409Z,17.80
2022-10-05T16:22:15.694Z,17.70
2022-10-05T16:28:32.635Z,17.60
2022-10-05T16:34:56.128Z,17.60
2022-10-05T16:41:15.656Z,17.50
2022-10-05T16:47:37.721Z,17.40
2022-10-05T16:53:39.429Z,17.50
2022-10-05T16:59:59.723Z,17.50
2022-10-05T17:06:04.512Z,17.50
2022-10-05T17:12:26.804Z,17.60
2022-10-05T17:18:28.534Z,17.50
2022-10-05T17:24:35.377Z,17.50
2022-10-05T17:30:56.138Z,17.70
2022-10-05T17:37:14.584Z,17.70
2022-10-05T17:43:16.326Z,17.60
2022-10-05T17:49:25.446Z,17.60
2022-10-05T17:55:33.950Z,17.60
2022-10-05T18:01:39.509Z,17.60
2022-10-05T18:07:48.676Z,17.50
2022-10-05T18:14:10.211Z,17.50
2022-10-05T18:20:15.109Z,17.50
2022-10-05T18:26:35.115Z,17.40
2022-10-05T18:32:39.488Z,17.40
2022-10-05T18:38:44.492Z,17.40
2022-10-05T18:45:04.999Z,17.30
2022-10-05T18:51:28.370Z,17.30
2022-10-05T18:57:35.856Z,17.30
2022-10-05T19:03:37.464Z,17.30
2022-10-05T19:09:45.515Z,17.40
2022-10-05T19:15:53.918Z,17.40
2022-10-05T19:21:55.530Z,17.30
2022-10-05T19:28:07.410Z,17.40
2022-10-05T19:34:16.514Z,17.40
2022-10-05T19:40:37.556Z,17.30
2022-10-05T19:46:48.486Z,17.30
2022-10-05T19:52:51.656Z,17.20
2022-10-05T19:58:56.474Z,17.10
2022-10-05T20:05:05.947Z,17.10
2022-10-05T20:11:15.028Z,17.10
2022-10-05T20:18:08.017Z,17.10
2022-10-05T20:24:14.205Z,17.10
2022-10-05T20:30:20.240Z,17.10
2022-10-05T20:36:21.926Z,17.00
2022-10-05T20:42:24.001Z,17.00
2022-10-05T20:48:26.307Z,17.00
2022-10-05T20:54:28.229Z,17.00
2022-10-05T21:00:53.049Z,17.00
2022-10-05T21:06:54.759Z,17.00
2022-10-05T21:12:56.389Z,17.00
2022-10-05T21:18:57.983Z,17.10
2022-10-05T21:24:59.719Z,17.10
2022-10-05T21:31:01.324Z,17.00
2022-10-05T21:37:02.970Z,17.00
2022-10-05T21:43:04.743Z,17.00
2022-10-05T21:49:07.151Z,16.90
2022-10-05T21:55:10.413Z,16.90
2022-10-05T22:01:12.626Z,16.90
2022-10-05T22:07:18.711Z,16.90
2022-10-05T22:13:20.908Z,16.90
2022-10-05T22:19:22.591Z,17.00
2022-10-05T22:25:24.246Z,17.00
2022-10-05T22:31:25.919Z,17.00
2022-10-05T22:37:27.606Z,17.10
2022-10-05T22:43:29.268Z,17.20
2022-10-05T22:49:30.880Z,17.20
2022-10-05T22:55:32.501Z,17.20
2022-10-05T23:01:34.240Z,17.10
2022-10-05T23:07:46.497Z,17.30
2022-10-05T23:13:52.100Z,17.20
2022-10-05T23:19:54.109Z,17.20
2022-10-05T23:25:59.478Z,17.20
2022-10-05T23:32:01.141Z,17.10
2022-10-05T23:38:02.758Z,17.10
2022-10-05T23:44:04.361Z,16.00
2022-10-05T23:50:07.122Z,15.20
2022-10-05T23:56:08.774Z,14.60
